sensor_id;sensor_type;location;lat;lon;timestamp;pressure;altitude;pressure_sealevel;temperature;humidity
27613;BME280;15036;48.094;-1.690;2023-04-30T00:01:24;101394.13;;;20.49;54.71
27613;BME280;15036;48.094;-1.690;2023-04-30T00:03:50;101397.78;;;20.66;53.94
27613;BME280;15036;48.094;-1.690;2023-04-30T00:06:15;101392.22;;;20.66;53.81
27613;BME280;15036;48.094;-1.690;2023-04-30T00:08:40;101407.66;;;20.45;54.55
27613;BME280;15036;48.094;-1.690;2023-04-30T00:11:06;101395.25;;;20.08;55.42
27613;BME280;15036;48.094;-1.690;2023-04-30T00:13:31;101408.06;;;20.37;55.03
27613;BME280;15036;48.094;-1.690;2023-04-30T00:15:57;101406.28;;;20.31;54.82
27613;BME280;15036;48.094;-1.690;2023-04-30T00:18:22;101407.94;;;20.44;54.52
27613;BME280;15036;48.094;-1.690;2023-04-30T00:20:47;101408.75;;;20.44;54.62
27613;BME280;15036;48.094;-1.690;2023-04-30T00:23:12;101401.88;;;20.47;54.46
27613;BME280;15036;48.094;-1.690;2023-04-30T00:25:38;101403.97;;;20.40;54.67
27613;BME280;15036;48.094;-1.690;2023-04-30T00:28:03;101407.31;;;20.42;54.56
27613;BME280;15036;48.094;-1.690;2023-04-30T00:30:29;101399.41;;;20.34;54.44
27613;BME280;15036;48.094;-1.690;2023-04-30T00:32:54;101400.03;;;20.52;54.31
27613;BME280;15036;48.094;-1.690;2023-04-30T00:35:19;101398.28;;;20.35;54.54
27613;BME280;15036;48.094;-1.690;2023-04-30T00:37:45;101392.09;;;20.44;54.28
27613;BME280;15036;48.094;-1.690;2023-04-30T00:40:11;101389.44;;;20.49;54.28
27613;BME280;15036;48.094;-1.690;2023-04-30T00:42:36;101391.03;;;20.45;54.49
27613;BME280;15036;48.094;-1.690;2023-04-30T00:45:01;101401.53;;;20.43;54.12
27613;BME280;15036;48.094;-1.690;2023-04-30T00:47:27;101391.81;;;20.57;54.11
27613;BME280;15036;48.094;-1.690;2023-04-30T00:49:52;101395.19;;;20.31;54.61
27613;BME280;15036;48.094;-1.690;2023-04-30T00:52:18;101391.16;;;20.39;54.56
27613;BME280;15036;48.094;-1.690;2023-04-30T00:54:43;101385.34;;;20.24;54.78
27613;BME280;15036;48.094;-1.690;2023-04-30T00:57:11;101378.47;;;20.26;54.78
27613;BME280;15036;48.094;-1.690;2023-04-30T00:59:37;101376.84;;;20.30;54.59
27613;BME280;15036;48.094;-1.690;2023-04-30T01:02:03;101369.66;;;20.18;54.85
27613;BME280;15036;48.094;-1.690;2023-04-30T01:04:28;101373.75;;;20.15;54.92
27613;BME280;15036;48.094;-1.690;2023-04-30T01:06:54;101375.59;;;20.10;55.04
27613;BME280;15036;48.094;-1.690;2023-04-30T01:09:20;101372.91;;;20.15;54.86
27613;BME280;15036;48.094;-1.690;2023-04-30T01:11:58;101372.81;;;20.10;55.05
27613;BME280;15036;48.094;-1.690;2023-04-30T01:14:30;101371.13;;;20.20;54.86
27613;BME280;15036;48.094;-1.690;2023-04-30T01:19:45;101369.38;;;20.31;54.33
27613;BME280;15036;48.094;-1.690;2023-04-30T01:25:09;101367.72;;;20.18;54.62
27613;BME280;15036;48.094;-1.690;2023-04-30T01:30:17;101366.44;;;19.58;56.23
27613;BME280;15036;48.094;-1.690;2023-04-30T01:32:43;101369.44;;;19.68;55.69
27613;BME280;15036;48.094;-1.690;2023-04-30T01:35:09;101368.50;;;19.51;56.52
27613;BME280;15036;48.094;-1.690;2023-04-30T01:37:51;101369.53;;;18.80;58.63
27613;BME280;15036;48.094;-1.690;2023-04-30T01:40:24;101364.97;;;19.67;55.97
27613;BME280;15036;48.094;-1.690;2023-04-30T01:51:00;101354.03;;;19.60;56.28
27613;BME280;15036;48.094;-1.690;2023-04-30T01:53:46;101365.53;;;19.92;55.35
27613;BME280;15036;48.094;-1.690;2023-04-30T01:56:28;101369.09;;;19.18;56.84
27613;BME280;15036;48.094;-1.690;2023-04-30T01:58:55;101360.91;;;19.58;56.10
27613;BME280;15036;48.094;-1.690;2023-04-30T02:01:28;101361.16;;;19.56;56.18
27613;BME280;15036;48.094;-1.690;2023-04-30T02:03:53;101364.38;;;19.53;56.52
27613;BME280;15036;48.094;-1.690;2023-04-30T02:06:19;101359.94;;;19.52;56.19
27613;BME280;15036;48.094;-1.690;2023-04-30T02:08:45;101363.41;;;19.59;56.18
27613;BME280;15036;48.094;-1.690;2023-04-30T02:11:10;101366.16;;;19.71;55.59
27613;BME280;15036;48.094;-1.690;2023-04-30T02:13:37;101360.44;;;19.61;55.91
27613;BME280;15036;48.094;-1.690;2023-04-30T02:16:03;101362.34;;;19.37;56.81
27613;BME280;15036;48.094;-1.690;2023-04-30T02:18:29;101367.41;;;19.29;56.85
27613;BME280;15036;48.094;-1.690;2023-04-30T02:20:54;101359.44;;;19.32;56.37
27613;BME280;15036;48.094;-1.690;2023-04-30T02:23:19;101359.59;;;19.37;56.65
27613;BME280;15036;48.094;-1.690;2023-04-30T02:25:44;101365.38;;;19.36;56.57
27613;BME280;15036;48.094;-1.690;2023-04-30T02:28:11;101357.44;;;19.51;56.22
27613;BME280;15036;48.094;-1.690;2023-04-30T02:30:36;101359.91;;;19.75;55.37
27613;BME280;15036;48.094;-1.690;2023-04-30T02:33:02;101366.81;;;19.38;56.15
27613;BME280;15036;48.094;-1.690;2023-04-30T02:35:27;101374.53;;;19.36;56.17
27613;BME280;15036;48.094;-1.690;2023-04-30T02:37:53;101369.91;;;19.65;55.22
27613;BME280;15036;48.094;-1.690;2023-04-30T02:40:18;101364.41;;;19.42;55.92
27613;BME280;15036;48.094;-1.690;2023-04-30T02:42:43;101360.34;;;19.33;56.21
27613;BME280;15036;48.094;-1.690;2023-04-30T02:45:09;101362.13;;;19.27;56.24
27613;BME280;15036;48.094;-1.690;2023-04-30T02:47:34;101365.94;;;19.26;56.23
27613;BME280;15036;48.094;-1.690;2023-04-30T02:50:00;101366.81;;;19.38;55.91
27613;BME280;15036;48.094;-1.690;2023-04-30T02:52:25;101372.00;;;19.35;56.08
27613;BME280;15036;48.094;-1.690;2023-04-30T02:54:51;101368.00;;;19.31;56.23
27613;BME280;15036;48.094;-1.690;2023-04-30T02:57:16;101369.56;;;19.27;56.32
27613;BME280;15036;48.094;-1.690;2023-04-30T02:59:41;101372.34;;;19.27;56.30
27613;BME280;15036;48.094;-1.690;2023-04-30T03:02:10;101372.94;;;19.29;56.29
27613;BME280;15036;48.094;-1.690;2023-04-30T03:04:35;101373.19;;;19.27;56.28
27613;BME280;15036;48.094;-1.690;2023-04-30T03:07:00;101370.44;;;19.27;56.03
27613;BME280;15036;48.094;-1.690;2023-04-30T03:09:29;101371.50;;;19.26;56.08
27613;BME280;15036;48.094;-1.690;2023-04-30T03:11:54;101365.09;;;19.26;56.37
27613;BME280;15036;48.094;-1.690;2023-04-30T03:14:19;101370.44;;;19.27;56.15
27613;BME280;15036;48.094;-1.690;2023-04-30T03:16:45;101361.03;;;19.28;56.09
27613;BME280;15036;48.094;-1.690;2023-04-30T03:19:10;101369.06;;;19.30;56.07
27613;BME280;15036;48.094;-1.690;2023-04-30T03:21:35;101370.44;;;19.50;55.82
27613;BME280;15036;48.094;-1.690;2023-04-30T03:24:01;101375.72;;;19.40;56.21
27613;BME280;15036;48.094;-1.690;2023-04-30T03:26:26;101372.38;;;19.38;56.07
27613;BME280;15036;48.094;-1.690;2023-04-30T03:28:52;101371.75;;;19.48;55.95
27613;BME280;15036;48.094;-1.690;2023-04-30T03:31:19;101377.03;;;19.49;55.76
27613;BME280;15036;48.094;-1.690;2023-04-30T03:33:44;101371.38;;;19.56;55.63
27613;BME280;15036;48.094;-1.690;2023-04-30T03:36:09;101376.69;;;19.46;55.82
27613;BME280;15036;48.094;-1.690;2023-04-30T03:38:35;101365.84;;;19.44;55.72
27613;BME280;15036;48.094;-1.690;2023-04-30T03:41:00;101370.31;;;19.34;56.00
27613;BME280;15036;48.094;-1.690;2023-04-30T03:43:25;101370.31;;;19.34;55.96
27613;BME280;15036;48.094;-1.690;2023-04-30T03:45:51;101368.72;;;19.26;55.94
27613;BME280;15036;48.094;-1.690;2023-04-30T03:48:16;101367.16;;;19.30;55.79
27613;BME280;15036;48.094;-1.690;2023-04-30T03:50:42;101365.69;;;19.28;55.68
27613;BME280;15036;48.094;-1.690;2023-04-30T03:53:07;101367.16;;;19.30;55.56
27613;BME280;15036;48.094;-1.690;2023-04-30T03:55:33;101369.22;;;19.23;55.77
27613;BME280;15036;48.094;-1.690;2023-04-30T03:57:58;101369.44;;;19.22;55.70
27613;BME280;15036;48.094;-1.690;2023-04-30T04:00:24;101366.06;;;19.20;55.70
27613;BME280;15036;48.094;-1.690;2023-04-30T04:02:49;101371.59;;;19.20;55.71
27613;BME280;15036;48.094;-1.690;2023-04-30T04:05:15;101364.41;;;19.19;55.75
27613;BME280;15036;48.094;-1.690;2023-04-30T04:07:40;101358.84;;;19.19;55.72
27613;BME280;15036;48.094;-1.690;2023-04-30T04:10:06;101358.72;;;19.14;55.85
27613;BME280;15036;48.094;-1.690;2023-04-30T04:12:32;101371.75;;;19.13;55.68
27613;BME280;15036;48.094;-1.690;2023-04-30T04:14:57;101360.66;;;19.13;55.65
27613;BME280;15036;48.094;-1.690;2023-04-30T04:17:22;101364.75;;;19.11;55.62
27613;BME280;15036;48.094;-1.690;2023-04-30T04:19:48;101365.00;;;19.09;55.68
27613;BME280;15036;48.094;-1.690;2023-04-30T04:22:13;101363.53;;;19.07;55.65
27613;BME280;15036;48.094;-1.690;2023-04-30T04:24:38;101370.75;;;19.08;55.67
27613;BME280;15036;48.094;-1.690;2023-04-30T04:27:04;101368.47;;;19.04;55.66
27613;BME280;15036;48.094;-1.690;2023-04-30T04:29:29;101371.25;;;19.04;55.80
27613;BME280;15036;48.094;-1.690;2023-04-30T04:31:56;101368.94;;;19.01;55.80
27613;BME280;15036;48.094;-1.690;2023-04-30T04:34:21;101363.78;;;19.17;55.82
27613;BME280;15036;48.094;-1.690;2023-04-30T04:36:47;101363.53;;;19.18;55.75
27613;BME280;15036;48.094;-1.690;2023-04-30T04:39:12;101368.00;;;19.19;55.77
27613;BME280;15036;48.094;-1.690;2023-04-30T04:41:37;101368.47;;;19.16;56.10
27613;BME280;15036;48.094;-1.690;2023-04-30T04:44:03;101376.06;;;19.21;56.07
27613;BME280;15036;48.094;-1.690;2023-04-30T04:46:30;101372.34;;;19.27;55.77
27613;BME280;15036;48.094;-1.690;2023-04-30T04:48:56;101375.00;;;19.45;55.55
27613;BME280;15036;48.094;-1.690;2023-04-30T04:51:21;101369.69;;;19.32;55.96
27613;BME280;15036;48.094;-1.690;2023-04-30T04:53:47;101373.41;;;19.26;55.99
27613;BME280;15036;48.094;-1.690;2023-04-30T04:56:12;101381.13;;;19.35;55.81
27613;BME280;15036;48.094;-1.690;2023-04-30T04:58:38;101384.41;;;19.44;55.82
27613;BME280;15036;48.094;-1.690;2023-04-30T05:01:03;101388.72;;;19.51;55.51
27613;BME280;15036;48.094;-1.690;2023-04-30T05:03:30;101391.72;;;19.50;55.67
27613;BME280;15036;48.094;-1.690;2023-04-30T05:05:56;101388.38;;;19.48;55.67
27613;BME280;15036;48.094;-1.690;2023-04-30T05:08:22;101381.16;;;19.47;55.45
27613;BME280;15036;48.094;-1.690;2023-04-30T05:10:47;101387.28;;;19.37;55.70
27613;BME280;15036;48.094;-1.690;2023-04-30T05:13:12;101386.56;;;19.42;55.54
27613;BME280;15036;48.094;-1.690;2023-04-30T05:15:38;101393.66;;;19.38;55.75
27613;BME280;15036;48.094;-1.690;2023-04-30T05:18:03;101383.53;;;19.43;55.60
27613;BME280;15036;48.094;-1.690;2023-04-30T05:20:28;101386.09;;;19.45;55.61
27613;BME280;15036;48.094;-1.690;2023-04-30T05:22:54;101387.66;;;19.52;55.42
27613;BME280;15036;48.094;-1.690;2023-04-30T05:25:19;101393.53;;;19.56;55.20
27613;BME280;15036;48.094;-1.690;2023-04-30T05:27:45;101389.91;;;19.55;55.13
27613;BME280;15036;48.094;-1.690;2023-04-30T05:30:10;101394.88;;;19.42;55.58
27613;BME280;15036;48.094;-1.690;2023-04-30T05:32:36;101403.06;;;19.60;55.31
27613;BME280;15036;48.094;-1.690;2023-04-30T05:35:01;101399.69;;;19.58;55.72
27613;BME280;15036;48.094;-1.690;2023-04-30T05:37:27;101397.38;;;19.66;55.26
27613;BME280;15036;48.094;-1.690;2023-04-30T05:39:52;101403.50;;;19.80;54.87
27613;BME280;15036;48.094;-1.690;2023-04-30T05:42:19;101400.16;;;19.66;55.20
27613;BME280;15036;48.094;-1.690;2023-04-30T05:44:44;101402.44;;;19.58;55.62
27613;BME280;15036;48.094;-1.690;2023-04-30T05:47:10;101405.44;;;19.68;55.37
27613;BME280;15036;48.094;-1.690;2023-04-30T05:49:35;101401.38;;;19.70;55.46
27613;BME280;15036;48.094;-1.690;2023-04-30T05:52:00;101403.53;;;19.68;55.49
27613;BME280;15036;48.094;-1.690;2023-04-30T05:54:28;101404.84;;;19.66;55.47
27613;BME280;15036;48.094;-1.690;2023-04-30T05:56:53;101402.31;;;19.76;55.02
27613;BME280;15036;48.094;-1.690;2023-04-30T05:59:19;101406.31;;;19.68;55.34
27613;BME280;15036;48.094;-1.690;2023-04-30T06:01:44;101415.94;;;19.66;55.26
27613;BME280;15036;48.094;-1.690;2023-04-30T06:04:10;101404.97;;;19.59;55.20
27613;BME280;15036;48.094;-1.690;2023-04-30T06:06:35;101416.63;;;19.73;54.98
27613;BME280;15036;48.094;-1.690;2023-04-30T06:09:01;101421.38;;;19.61;55.35
27613;BME280;15036;48.094;-1.690;2023-04-30T06:11:26;101421.56;;;19.71;55.03
27613;BME280;15036;48.094;-1.690;2023-04-30T06:13:52;101415.59;;;19.51;55.07
27613;BME280;15036;48.094;-1.690;2023-04-30T06:16:17;101419.78;;;19.53;55.31
27613;BME280;15036;48.094;-1.690;2023-04-30T06:18:42;101420.38;;;19.67;55.26
27613;BME280;15036;48.094;-1.690;2023-04-30T06:21:08;101419.41;;;19.61;55.33
27613;BME280;15036;48.094;-1.690;2023-04-30T06:23:34;101424.56;;;19.81;54.82
27613;BME280;15036;48.094;-1.690;2023-04-30T06:25:59;101418.81;;;19.82;54.79
27613;BME280;15036;48.094;-1.690;2023-04-30T06:28:25;101419.41;;;19.84;54.67
27613;BME280;15036;48.094;-1.690;2023-04-30T06:30:50;101425.78;;;19.73;55.01
27613;BME280;15036;48.094;-1.690;2023-04-30T06:33:17;101430.81;;;20.00;54.32
27613;BME280;15036;48.094;-1.690;2023-04-30T06:35:43;101430.91;;;20.16;53.81
27613;BME280;15036;48.094;-1.690;2023-04-30T06:38:08;101425.75;;;20.08;53.70
27613;BME280;15036;48.094;-1.690;2023-04-30T06:40:34;101434.28;;;20.18;53.65
27613;BME280;15036;48.094;-1.690;2023-04-30T06:42:59;101430.06;;;20.16;53.67
27613;BME280;15036;48.094;-1.690;2023-04-30T06:45:25;101432.59;;;20.06;54.00
27613;BME280;15036;48.094;-1.690;2023-04-30T06:47:50;101433.09;;;20.14;53.63
27613;BME280;15036;48.094;-1.690;2023-04-30T06:50:17;101436.75;;;20.43;52.90
27613;BME280;15036;48.094;-1.690;2023-04-30T06:52:42;101428.38;;;20.26;52.73
27613;BME280;15036;48.094;-1.690;2023-04-30T06:55:08;101437.47;;;20.38;52.96
27613;BME280;15036;48.094;-1.690;2023-04-30T06:57:34;101435.88;;;20.42;52.77
27613;BME280;15036;48.094;-1.690;2023-04-30T07:00:05;101436.72;;;20.71;52.27
27613;BME280;15036;48.094;-1.690;2023-04-30T07:02:31;101447.38;;;20.62;52.34
27613;BME280;15036;48.094;-1.690;2023-04-30T07:04:56;101444.28;;;21.04;51.41
27613;BME280;15036;48.094;-1.690;2023-04-30T07:07:22;101441.97;;;20.84;51.99
27613;BME280;15036;48.094;-1.690;2023-04-30T07:09:47;101448.50;;;21.06;51.49
27613;BME280;15036;48.094;-1.690;2023-04-30T07:12:13;101447.44;;;20.96;51.26
27613;BME280;15036;48.094;-1.690;2023-04-30T07:14:39;101445.97;;;21.05;51.34
27613;BME280;15036;48.094;-1.690;2023-04-30T07:17:04;101443.97;;;21.17;51.27
27613;BME280;15036;48.094;-1.690;2023-04-30T07:19:30;101441.84;;;21.24;51.35
27613;BME280;15036;48.094;-1.690;2023-04-30T07:21:56;101442.72;;;21.24;51.12
27613;BME280;15036;48.094;-1.690;2023-04-30T07:24:21;101436.72;;;21.49;50.52
27613;BME280;15036;48.094;-1.690;2023-04-30T07:26:47;101441.91;;;21.62;50.36
27613;BME280;15036;48.094;-1.690;2023-04-30T07:29:12;101439.34;;;21.39;50.61
27613;BME280;15036;48.094;-1.690;2023-04-30T07:31:37;101438.06;;;21.46;50.52
27613;BME280;15036;48.094;-1.690;2023-04-30T07:34:03;101442.88;;;21.51;50.65
27613;BME280;15036;48.094;-1.690;2023-04-30T07:36:28;101444.75;;;21.67;50.19
27613;BME280;15036;48.094;-1.690;2023-04-30T07:38:53;101449.13;;;21.96;49.99
27613;BME280;15036;48.094;-1.690;2023-04-30T07:41:19;101447.44;;;22.17;49.35
27613;BME280;15036;48.094;-1.690;2023-04-30T07:43:44;101445.22;;;22.40;48.50
27613;BME280;15036;48.094;-1.690;2023-04-30T07:46:10;101443.88;;;22.43;48.56
27613;BME280;15036;48.094;-1.690;2023-04-30T07:48:35;101448.84;;;22.63;48.02
27613;BME280;15036;48.094;-1.690;2023-04-30T07:51:02;101442.94;;;22.81;47.08
27613;BME280;15036;48.094;-1.690;2023-04-30T07:53:29;101451.41;;;22.96;46.97
27613;BME280;15036;48.094;-1.690;2023-04-30T07:55:54;101450.44;;;23.07;47.36
27613;BME280;15036;48.094;-1.690;2023-04-30T07:58:19;101450.16;;;23.08;46.81
27613;BME280;15036;48.094;-1.690;2023-04-30T08:00:45;101451.53;;;23.06;46.07
27613;BME280;15036;48.094;-1.690;2023-04-30T08:03:10;101441.72;;;22.98;46.21
27613;BME280;15036;48.094;-1.690;2023-04-30T08:05:36;101437.09;;;23.09;46.81
27613;BME280;15036;48.094;-1.690;2023-04-30T08:08:02;101443.16;;;23.33;46.34
27613;BME280;15036;48.094;-1.690;2023-04-30T08:10:27;101438.53;;;23.48;45.79
27613;BME280;15036;48.094;-1.690;2023-04-30T08:12:53;101440.25;;;23.54;46.05
27613;BME280;15036;48.094;-1.690;2023-04-30T08:15:18;101436.13;;;23.62;45.59
27613;BME280;15036;48.094;-1.690;2023-04-30T08:17:50;101430.25;;;23.58;45.80
27613;BME280;15036;48.094;-1.690;2023-04-30T08:20:15;101431.81;;;23.86;45.82
27613;BME280;15036;48.094;-1.690;2023-04-30T08:22:41;101435.75;;;23.95;45.11
27613;BME280;15036;48.094;-1.690;2023-04-30T08:25:09;101439.34;;;23.85;45.33
27613;BME280;15036;48.094;-1.690;2023-04-30T08:27:35;101439.63;;;23.84;45.43
27613;BME280;15036;48.094;-1.690;2023-04-30T08:30:00;101435.75;;;23.95;45.20
27613;BME280;15036;48.094;-1.690;2023-04-30T08:32:26;101440.91;;;24.08;44.98
27613;BME280;15036;48.094;-1.690;2023-04-30T08:34:52;101437.47;;;24.01;45.25
27613;BME280;15036;48.094;-1.690;2023-04-30T08:37:18;101439.53;;;24.16;44.88
27613;BME280;15036;48.094;-1.690;2023-04-30T08:39:46;101432.28;;;24.20;45.06
27613;BME280;15036;48.094;-1.690;2023-04-30T08:42:13;101430.91;;;24.22;45.07
27613;BME280;15036;48.094;-1.690;2023-04-30T08:44:39;101434.56;;;24.28;45.03
27613;BME280;15036;48.094;-1.690;2023-04-30T08:47:09;101430.19;;;24.52;45.03
27613;BME280;15036;48.094;-1.690;2023-04-30T08:49:37;101434.38;;;24.64;44.48
27613;BME280;15036;48.094;-1.690;2023-04-30T08:52:03;101431.69;;;24.89;43.50
27613;BME280;15036;48.094;-1.690;2023-04-30T08:54:30;101423.06;;;25.11;43.36
27613;BME280;15036;48.094;-1.690;2023-04-30T08:56:56;101428.63;;;25.11;42.91
27613;BME280;15036;48.094;-1.690;2023-04-30T08:59:22;101421.38;;;25.40;42.54
27613;BME280;15036;48.094;-1.690;2023-04-30T09:01:47;101421.91;;;25.22;42.54
27613;BME280;15036;48.094;-1.690;2023-04-30T09:04:13;101425.28;;;25.19;42.69
27613;BME280;15036;48.094;-1.690;2023-04-30T09:06:38;101423.03;;;25.26;42.55
27613;BME280;15036;48.094;-1.690;2023-04-30T09:09:08;101424.19;;;25.40;42.56
27613;BME280;15036;48.094;-1.690;2023-04-30T09:11:35;101419.44;;;25.41;42.29
27613;BME280;15036;48.094;-1.690;2023-04-30T09:14:01;101424.41;;;24.88;42.83
27613;BME280;15036;48.094;-1.690;2023-04-30T09:16:28;101421.09;;;25.37;42.95
27613;BME280;15036;48.094;-1.690;2023-04-30T09:18:55;101423.59;;;25.58;42.33
27613;BME280;15036;48.094;-1.690;2023-04-30T09:21:36;101422.75;;;25.63;42.05
27613;BME280;15036;48.094;-1.690;2023-04-30T09:24:03;101421.06;;;25.72;41.81
27613;BME280;15036;48.094;-1.690;2023-04-30T09:26:33;101416.28;;;25.67;42.08
27613;BME280;15036;48.094;-1.690;2023-04-30T09:28:59;101431.69;;;24.79;43.32
27613;BME280;15036;48.094;-1.690;2023-04-30T09:31:25;101429.75;;;25.15;42.80
27613;BME280;15036;48.094;-1.690;2023-04-30T09:33:51;101433.09;;;25.22;43.68
27613;BME280;15036;48.094;-1.690;2023-04-30T09:36:17;101436.09;;;23.98;46.28
27613;BME280;15036;48.094;-1.690;2023-04-30T09:38:43;101442.97;;;23.81;47.21
27613;BME280;15036;48.094;-1.690;2023-04-30T09:41:24;101445.09;;;23.32;48.57
27613;BME280;15036;48.094;-1.690;2023-04-30T09:43:50;101444.69;;;23.50;48.23
27613;BME280;15036;48.094;-1.690;2023-04-30T09:46:18;101447.34;;;22.55;50.20
27613;BME280;15036;48.094;-1.690;2023-04-30T09:48:43;101437.44;;;23.49;49.04
27613;BME280;15036;48.094;-1.690;2023-04-30T09:51:09;101438.19;;;23.76;48.26
27613;BME280;15036;48.094;-1.690;2023-04-30T09:53:40;101442.47;;;23.99;48.08
27613;BME280;15036;48.094;-1.690;2023-04-30T09:56:06;101435.69;;;23.85;48.01
27613;BME280;15036;48.094;-1.690;2023-04-30T09:58:36;101447.34;;;23.72;47.49
27613;BME280;15036;48.094;-1.690;2023-04-30T10:01:04;101449.47;;;24.01;47.90
27613;BME280;15036;48.094;-1.690;2023-04-30T10:03:32;101447.81;;;24.00;47.58
27613;BME280;15036;48.094;-1.690;2023-04-30T10:05:58;101449.50;;;22.96;49.83
27613;BME280;15036;48.094;-1.690;2023-04-30T10:08:31;101451.25;;;22.76;50.36
27613;BME280;15036;48.094;-1.690;2023-04-30T10:13:30;101463.06;;;21.30;54.41
27613;BME280;15036;48.094;-1.690;2023-04-30T10:15:58;101453.19;;;21.72;52.90
27613;BME280;15036;48.094;-1.690;2023-04-30T10:18:32;101456.19;;;22.04;52.27
27613;BME280;15036;48.094;-1.690;2023-04-30T10:21:02;101448.81;;;21.76;52.96
27613;BME280;15036;48.094;-1.690;2023-04-30T10:23:35;101448.84;;;22.41;51.29
27613;BME280;15036;48.094;-1.690;2023-04-30T10:26:01;101442.91;;;22.76;50.61
27613;BME280;15036;48.094;-1.690;2023-04-30T10:28:26;101445.66;;;22.54;50.69
27613;BME280;15036;48.094;-1.690;2023-04-30T10:30:53;101441.72;;;23.30;49.30
27613;BME280;15036;48.094;-1.690;2023-04-30T10:33:29;101437.13;;;23.14;49.00
27613;BME280;15036;48.094;-1.690;2023-04-30T10:36:01;101430.09;;;23.75;47.55
27613;BME280;15036;48.094;-1.690;2023-04-30T10:38:29;101431.53;;;23.41;47.83
27613;BME280;15036;48.094;-1.690;2023-04-30T10:40:58;101427.56;;;24.20;46.52
27613;BME280;15036;48.094;-1.690;2023-04-30T10:43:26;101429.88;;;24.38;46.16
27613;BME280;15036;48.094;-1.690;2023-04-30T10:45:51;101422.09;;;23.93;46.66
27613;BME280;15036;48.094;-1.690;2023-04-30T10:48:17;101431.81;;;24.38;46.01
27613;BME280;15036;48.094;-1.690;2023-04-30T10:50:52;101429.97;;;24.78;45.33
27613;BME280;15036;48.094;-1.690;2023-04-30T10:53:19;101433.66;;;24.12;46.15
27613;BME280;15036;48.094;-1.690;2023-04-30T10:55:52;101427.06;;;22.81;49.07
27613;BME280;15036;48.094;-1.690;2023-04-30T10:58:29;101433.22;;;24.50;46.12
27613;BME280;15036;48.094;-1.690;2023-04-30T11:00:59;101424.69;;;24.82;45.46
27613;BME280;15036;48.094;-1.690;2023-04-30T11:03:27;101424.13;;;24.80;45.40
27613;BME280;15036;48.094;-1.690;2023-04-30T11:05:52;101432.06;;;24.26;45.65
27613;BME280;15036;48.094;-1.690;2023-04-30T11:08:18;101433.06;;;24.77;44.81
27613;BME280;15036;48.094;-1.690;2023-04-30T11:10:58;101426.00;;;23.92;45.67
27613;BME280;15036;48.094;-1.690;2023-04-30T11:13:26;101427.88;;;24.34;45.95
27613;BME280;15036;48.094;-1.690;2023-04-30T11:15:52;101427.41;;;24.67;45.37
27613;BME280;15036;48.094;-1.690;2023-04-30T11:18:17;101425.88;;;25.41;44.34
27613;BME280;15036;48.094;-1.690;2023-04-30T11:20:52;101421.09;;;25.27;43.45
27613;BME280;15036;48.094;-1.690;2023-04-30T11:23:24;101421.34;;;25.00;44.12
27613;BME280;15036;48.094;-1.690;2023-04-30T11:25:53;101423.06;;;25.11;43.90
27613;BME280;15036;48.094;-1.690;2023-04-30T11:28:25;101419.22;;;24.30;45.33
27613;BME280;15036;48.094;-1.690;2023-04-30T11:30:53;101415.69;;;24.60;44.75
27613;BME280;15036;48.094;-1.690;2023-04-30T11:33:19;101416.16;;;24.37;45.48
27613;BME280;15036;48.094;-1.690;2023-04-30T11:35:45;101412.44;;;23.64;46.75
27613;BME280;15036;48.094;-1.690;2023-04-30T11:38:14;101416.38;;;23.68;47.26
27613;BME280;15036;48.094;-1.690;2023-04-30T11:40:41;101419.59;;;23.45;47.16
27613;BME280;15036;48.094;-1.690;2023-04-30T11:43:29;101419.97;;;22.95;49.03
27613;BME280;15036;48.094;-1.690;2023-04-30T11:46:11;101421.09;;;21.81;51.93
27613;BME280;15036;48.094;-1.690;2023-04-30T11:48:39;101423.88;;;22.24;51.71
27613;BME280;15036;48.094;-1.690;2023-04-30T11:51:20;101417.03;;;23.12;49.61
27613;BME280;15036;48.094;-1.690;2023-04-30T11:53:47;101423.94;;;23.31;49.06
27613;BME280;15036;48.094;-1.690;2023-04-30T11:56:13;101426.75;;;23.36;48.72
27613;BME280;15036;48.094;-1.690;2023-04-30T11:58:38;101420.28;;;22.99;49.41
27613;BME280;15036;48.094;-1.690;2023-04-30T12:01:07;101425.09;;;23.40;48.70
27613;BME280;15036;48.094;-1.690;2023-04-30T12:03:48;101414.53;;;23.89;47.84
27613;BME280;15036;48.094;-1.690;2023-04-30T12:06:25;101427.41;;;23.21;48.97
27613;BME280;15036;48.094;-1.690;2023-04-30T12:08:52;101409.50;;;23.39;48.59
27613;BME280;15036;48.094;-1.690;2023-04-30T12:11:29;101427.03;;;23.35;49.38
27613;BME280;15036;48.094;-1.690;2023-04-30T12:14:09;101412.84;;;22.08;52.49
27613;BME280;15036;48.094;-1.690;2023-04-30T12:19:06;101409.88;;;23.21;50.13
27613;BME280;15036;48.094;-1.690;2023-04-30T12:21:43;101403.59;;;23.36;49.43
27613;BME280;15036;48.094;-1.690;2023-04-30T12:24:11;101419.88;;;22.37;52.27
27613;BME280;15036;48.094;-1.690;2023-04-30T12:26:37;101410.66;;;23.11;50.43
27613;BME280;15036;48.094;-1.690;2023-04-30T12:29:08;101407.97;;;22.41;51.80
27613;BME280;15036;48.094;-1.690;2023-04-30T12:31:36;101413.94;;;22.77;51.06
27613;BME280;15036;48.094;-1.690;2023-04-30T12:34:08;101411.59;;;22.64;51.13
27613;BME280;15036;48.094;-1.690;2023-04-30T12:36:34;101413.34;;;22.05;52.44
27613;BME280;15036;48.094;-1.690;2023-04-30T12:39:07;101404.88;;;22.60;51.80
27613;BME280;15036;48.094;-1.690;2023-04-30T12:41:43;101409.22;;;23.09;50.26
27613;BME280;15036;48.094;-1.690;2023-04-30T12:44:17;101398.44;;;22.59;51.24
27613;BME280;15036;48.094;-1.690;2023-04-30T12:46:43;101397.13;;;22.93;51.43
27613;BME280;15036;48.094;-1.690;2023-04-30T12:49:10;101404.72;;;22.50;51.96
27613;BME280;15036;48.094;-1.690;2023-04-30T12:51:36;101400.00;;;23.35;50.46
27613;BME280;15036;48.094;-1.690;2023-04-30T12:54:04;101398.19;;;23.24;50.18
27613;BME280;15036;48.094;-1.690;2023-04-30T12:56:30;101398.69;;;23.99;48.83
27613;BME280;15036;48.094;-1.690;2023-04-30T12:58:55;101401.56;;;23.63;49.03
27613;BME280;15036;48.094;-1.690;2023-04-30T13:01:21;101393.38;;;23.51;49.49